AirNav   Everest Fuels
 
 1096 users online  

NH68 Merrymeeting Lake Seaplane Base
New Durham, New Hampshire, USA

GOING TO NEW DURHAM?


FAA INFORMATION EFFECTIVE 22 APRIL 2021

Location

FAA Identifier: NH68
Lat/Long: 43-28-47.8900N 071-10-12.5600W
43-28.798167N 071-10.209333W
43.4799694,-71.1701556
(estimated)
Elevation: 647 ft. / 197 m (estimated)
Variation: 16W (1995)
From city: 3 miles N of NEW DURHAM, NH
Time zone: UTC -4 (UTC -5 during Standard Time)
Zip code: 03855

Seaplane Base Operations

Seaplane Base use: Private use. Permission required prior to landing
Activation date: 03/2000
Control tower: no
ARTCC: BOSTON CENTER
FSS: BANGOR FLIGHT SERVICE STATION
Attendance: UNATNDD
Segmented circle: no

Seaplane Base Communications

UNICOM: 122.8
WX AWOS-3PT at LCI (12 nm NW): 133.525 (603-524-5134)
WX ASOS at DAW (16 nm SE): 135.275 (603-332-7814)

Nearby radio navigation aids

VOR radial/distance  VOR name  Freq  Var
CONr064/23.6CONCORD VOR/DME112.9015W
ENEr295/24.5KENNEBUNK VOR/DME117.1017W
PSMr344/28.0PEASE VOR/DME116.5016W
MHTr028/37.7MANCHESTER VOR/DME114.4015W

 
NDB name  Hdg/Dist  Freq  Var  ID
ROLLINS332/21.626016WESG . ... --.

Seaplane Base Services

Runway Information

Runway 13W/31W

Dimensions: 4000 x 250 ft. / 1219 x 76 m
Surface: water
RUNWAY 13W  RUNWAY 31W
Traffic pattern: leftleft

Seaplane Base Ownership and Management from official FAA records

Ownership: Privately-owned
Owner: DENNIS THORELL
P.O. BOX 246
NEW DURHAM, NH 03855
Phone 603-859-4011
Manager: DENNIS THORELL
P.O. BOX 246
NEW DURHAM, NH 03855
Phone 603-859-4011

Seaplane Base Operational Statistics

Aircraft based on the field: 2
Single engine airplanes: 2
    

Additional Remarks

A52-13W 800 FT MOUNTAIN 1 MILE NW; 800 FT MOUNTAIN 1.5 MILES N; & 500 FT MOUNTIAN .5 MILE S OF SPB.
FOR CD CTC BOSTON APCH AT 603-594-5551.

Instrument Procedures

There are no published instrument procedures at NH68.

Some nearby airports with instrument procedures:

KLCI - Laconia Municipal Airport (12 nm NW)
KDAW - Skyhaven Airport (16 nm SE)
KSFM - Sanford Seacoast Regional Airport (21 nm E)
KCON - Concord Municipal Airport (22 nm SW)
3B4 - Littlebrook Air Park (27 nm SE)
 
Loc | Ops | Rwys | IFR | FBO | Links
Com | Nav | Svcs | Stats | Notes
Area around NH68 (Merrymeeting Lake Seaplane Base)
 
Road maps at: MapQuest Bing Google
 
Aerial photo
No photo
 
Sectional chart

 
Airport distance calculator
Flying to Merrymeeting Lake Seaplane Base? Find the distance to fly.

From to NH68

Sunrise and sunset
Times for 15-May-2021
 Local
(UTC-4)
 Zulu
(UTC)
Morning civil twilight04:4808:48
Sunrise05:2109:21
Sunset20:0100:01
Evening civil twilight20:3400:34

Current date and time
Zulu (UTC)  15-May-2021 20:00:15
Local (UTC-4)  15-May-2021 16:00:15
 
METAR
KLCI 
12nm NW 
151856Z AUTO 02006KT 10SM FEW110 24/01 A3014 RMK AO2 SLP205 T02390011
KDAW 
16nm SE 
151951Z AUTO 15010G17KT 130V190 10SM CLR 23/03 A3015 RMK AO2 SLP207 T02280028
KSFM 
21nm E 
151856Z AUTO 14008KT 110V170 10SM SCT110 22/05 A3018 RMK AO2 SLP222 T02170050
KCON 
22nm SW 
151951Z AUTO 23011G17KT 10SM CLR 26/M04 A3012 RMK AO2 SLP201 T02611039
TAF
KCON 
22nm SW 
151737Z 1518/1618 25006KT P6SM FEW100 FM160000 VRB03KT P6SM SCT080 FM161200 30004KT P6SM SCT080
NOTAMs
Click for the latest NOTAMs
NOTAMs are issued by the DoD/FAA and will open in a separate window not controlled by AirNav.

 

 
 

Would you like to see your business listed on this page?

 If your business provides an interesting product or service to pilots, flight crews, aircraft, or users of the Merrymeeting Lake Seaplane Base, you should consider listing it here.  To start the listing process, click on the button below
 
Add a business
 

Other Pages about Merrymeeting Lake Seaplane Base

Update a link
 
Copyright © AirNav, LLC. All rights reserved. Privacy Policy  Contact